RA07870 UBBB-LTFH
Flight info
| Callsign | RA07870 |
|---|---|
| Flight time | 2h 58m |
| Altitude | 24000 |
| Route | AGDAM M747 LUSAL N319 ADEKI/N0271F260 N644 TETRO M10 SARPI UN37 TBN UW71 TERME |
| Aircraft | PC12/L-SDFGRWY/S |
Departure
| Time | 2026-04-23 17:23 |
|---|---|
| Airport | Heydar Aliyev International Airport (UBBB) |
Arrival
| Time | 2026-04-23 20:21 |
|---|---|
| Airport | Samsun-Çarşamba Airport (LTFH) |
| Time | Latitude | Longitude | Altitude | Speed | Heading |
|---|---|---|---|---|---|
| 2026-04-23 16:47 | 40.46860 | 50.04984 | 11 ft | 0 kts | 89° |
| 2026-04-23 17:14 | 40.46860 | 50.04995 | 11 ft | 5 kts | 87° |
| 2026-04-23 17:15 | 40.46884 | 50.05046 | 11 ft | 8 kts | 27° |
| 2026-04-23 17:15 | 40.46921 | 50.05099 | 11 ft | 9 kts | 75° |
| 2026-04-23 17:15 | 40.46924 | 50.05195 | 11 ft | 12 kts | 88° |
| 2026-04-23 17:15 | 40.46927 | 50.05311 | 11 ft | 14 kts | 88° |
| 2026-04-23 17:16 | 40.46930 | 50.05443 | 11 ft | 15 kts | 88° |
| 2026-04-23 17:16 | 40.46934 | 50.05587 | 11 ft | 17 kts | 88° |
| 2026-04-23 17:16 | 40.46938 | 50.05745 | 11 ft | 18 kts | 88° |
| 2026-04-23 17:16 | 40.46943 | 50.05908 | 11 ft | 18 kts | 86° |
| 2026-04-23 17:17 | 40.46939 | 50.06051 | 11 ft | 13 kts | 118° |
| 2026-04-23 17:17 | 40.46856 | 50.06092 | 11 ft | 14 kts | 180° |
| 2026-04-23 17:17 | 40.46787 | 50.06093 | 11 ft | 15 kts | 180° |
| 2026-04-23 17:17 | 40.46637 | 50.06095 | 11 ft | 17 kts | 181° |
| 2026-04-23 17:18 | 40.46376 | 50.06099 | 11 ft | 22 kts | 180° |
| 2026-04-23 17:18 | 40.46218 | 50.06101 | 11 ft | 23 kts | 179° |
| 2026-04-23 17:18 | 40.46060 | 50.06102 | 10 ft | 23 kts | 180° |
| 2026-04-23 17:19 | 40.45901 | 50.06106 | 11 ft | 22 kts | 179° |
| 2026-04-23 17:19 | 40.45755 | 50.06107 | 11 ft | 16 kts | 179° |
| 2026-04-23 17:19 | 40.45715 | 50.06109 | 10 ft | 0 kts | 179° |
| 2026-04-23 17:21 | 40.45662 | 50.06278 | 7 ft | 18 kts | 65° |
| 2026-04-23 17:21 | 40.45734 | 50.06322 | 7 ft | 0 kts | 359° |
| 2026-04-23 17:21 | 40.45747 | 50.06322 | 7 ft | 14 kts | 359° |
| 2026-04-23 17:22 | 40.46033 | 50.06313 | 6 ft | 67 kts | 357° |
| 2026-04-23 17:22 | 40.47189 | 50.06299 | 499 ft | 81 kts | 357° |
| 2026-04-23 17:23 | 40.48438 | 50.06271 | 998 ft | 103 kts | 356° |
| 2026-04-23 17:23 | 40.49200 | 50.06106 | 1215 ft | 122 kts | 347° |
| 2026-04-23 17:23 | 40.51232 | 50.05653 | 1809 ft | 169 kts | 346° |
| 2026-04-23 17:24 | 40.52450 | 50.05373 | 2197 ft | 186 kts | 346° |
| 2026-04-23 17:24 | 40.53628 | 50.04696 | 2548 ft | 189 kts | 311° |
| 2026-04-23 17:24 | 40.54263 | 50.01585 | 3314 ft | 179 kts | 271° |
| 2026-04-23 17:25 | 40.54922 | 49.98375 | 4067 ft | 184 kts | 284° |
| 2026-04-23 17:25 | 40.55330 | 49.96782 | 4447 ft | 184 kts | 284° |
| 2026-04-23 17:26 | 40.56119 | 49.93606 | 5195 ft | 183 kts | 284° |
| 2026-04-23 17:26 | 40.56907 | 49.90414 | 5942 ft | 183 kts | 285° |
| 2026-04-23 17:27 | 40.57697 | 49.87214 | 6680 ft | 185 kts | 285° |
| 2026-04-23 17:27 | 40.58093 | 49.85608 | 7039 ft | 185 kts | 285° |
| 2026-04-23 17:27 | 40.58489 | 49.84000 | 7402 ft | 185 kts | 285° |
| 2026-04-23 17:27 | 40.58886 | 49.82390 | 7777 ft | 185 kts | 285° |
| 2026-04-23 17:28 | 40.59283 | 49.80776 | 8151 ft | 185 kts | 286° |
| 2026-04-23 17:28 | 40.59678 | 49.79169 | 8526 ft | 185 kts | 285° |
| 2026-04-23 17:28 | 40.60068 | 49.77582 | 8905 ft | 184 kts | 285° |
| 2026-04-23 17:28 | 40.60462 | 49.75976 | 9293 ft | 184 kts | 286° |
| 2026-04-23 17:29 | 40.60856 | 49.74371 | 9681 ft | 185 kts | 286° |
| 2026-04-23 17:29 | 40.61252 | 49.72755 | 10045 ft | 185 kts | 286° |
| 2026-04-23 17:29 | 40.62044 | 49.69522 | 10768 ft | 185 kts | 285° |
| 2026-04-23 17:30 | 40.62305 | 49.68453 | 11011 ft | 185 kts | 285° |
| 2026-04-23 17:30 | 40.63229 | 49.64674 | 11885 ft | 186 kts | 285° |
| 2026-04-23 17:30 | 40.63625 | 49.63052 | 12264 ft | 186 kts | 285° |
| 2026-04-23 17:31 | 40.64017 | 49.61445 | 12647 ft | 187 kts | 285° |
| 2026-04-23 17:31 | 40.64415 | 49.59813 | 13038 ft | 187 kts | 285° |
| 2026-04-23 17:31 | 40.64817 | 49.58166 | 13431 ft | 188 kts | 285° |
| 2026-04-23 17:31 | 40.65217 | 49.56520 | 13816 ft | 188 kts | 285° |
| 2026-04-23 17:32 | 40.65616 | 49.54880 | 14169 ft | 188 kts | 285° |
| 2026-04-23 17:32 | 40.66016 | 49.53234 | 14529 ft | 189 kts | 285° |
| 2026-04-23 17:32 | 40.66417 | 49.51587 | 14889 ft | 189 kts | 285° |
| 2026-04-23 17:32 | 40.66682 | 49.50493 | 15132 ft | 189 kts | 285° |
| 2026-04-23 17:33 | 40.67213 | 49.48306 | 15622 ft | 189 kts | 285° |
| 2026-04-23 17:33 | 40.67615 | 49.46650 | 15968 ft | 191 kts | 285° |
| 2026-04-23 17:33 | 40.68019 | 49.44980 | 16297 ft | 192 kts | 285° |
| 2026-04-23 17:33 | 40.68427 | 49.43296 | 16607 ft | 193 kts | 285° |
| 2026-04-23 17:34 | 40.68837 | 49.41603 | 16914 ft | 194 kts | 285° |
| 2026-04-23 17:34 | 40.69109 | 49.40477 | 17121 ft | 195 kts | 286° |
| 2026-04-23 17:34 | 40.69934 | 49.37064 | 17766 ft | 196 kts | 286° |
| 2026-04-23 17:35 | 40.70348 | 49.35347 | 18081 ft | 197 kts | 286° |
| 2026-04-23 17:35 | 40.71180 | 49.31898 | 18656 ft | 198 kts | 286° |
| 2026-04-23 17:35 | 40.71598 | 49.30161 | 18939 ft | 199 kts | 286° |
| 2026-04-23 17:36 | 40.72017 | 49.28419 | 19207 ft | 201 kts | 286° |
| 2026-04-23 17:36 | 40.72441 | 49.26655 | 19449 ft | 202 kts | 286° |
| 2026-04-23 17:36 | 40.72868 | 49.24879 | 19694 ft | 204 kts | 286° |
| 2026-04-23 17:36 | 40.73298 | 49.23087 | 19938 ft | 205 kts | 286° |
| 2026-04-23 17:37 | 40.73729 | 49.21291 | 20187 ft | 205 kts | 286° |
| 2026-04-23 17:37 | 40.74162 | 49.19486 | 20438 ft | 206 kts | 286° |
| 2026-04-23 17:37 | 40.75025 | 49.15882 | 20947 ft | 206 kts | 286° |
| 2026-04-23 17:38 | 40.75449 | 49.14107 | 21194 ft | 205 kts | 285° |
| 2026-04-23 17:38 | 40.75879 | 49.12308 | 21455 ft | 206 kts | 285° |
| 2026-04-23 17:38 | 40.76309 | 49.10505 | 21710 ft | 206 kts | 285° |
| 2026-04-23 17:38 | 40.76741 | 49.08697 | 21977 ft | 207 kts | 285° |
| 2026-04-23 17:39 | 40.77172 | 49.06886 | 22244 ft | 207 kts | 285° |
| 2026-04-23 17:39 | 40.77603 | 49.05076 | 22510 ft | 207 kts | 285° |
| 2026-04-23 17:39 | 40.78033 | 49.03269 | 22780 ft | 206 kts | 285° |
| 2026-04-23 17:39 | 40.78464 | 49.01458 | 23005 ft | 207 kts | 285° |
| 2026-04-23 17:40 | 40.78896 | 48.99640 | 23229 ft | 208 kts | 285° |
| 2026-04-23 17:40 | 40.79332 | 48.97805 | 23445 ft | 211 kts | 285° |
| 2026-04-23 17:40 | 40.79772 | 48.95946 | 23633 ft | 213 kts | 285° |
| 2026-04-23 17:40 | 40.80216 | 48.94077 | 23818 ft | 214 kts | 285° |
| 2026-04-23 17:41 | 40.80667 | 48.92170 | 23827 ft | 220 kts | 286° |
| 2026-04-23 17:41 | 40.81600 | 48.88233 | 23831 ft | 229 kts | 286° |
| 2026-04-23 17:41 | 40.82077 | 48.86217 | 23830 ft | 231 kts | 286° |
| 2026-04-23 17:42 | 40.83036 | 48.82152 | 23833 ft | 235 kts | 286° |
| 2026-04-23 17:42 | 40.83524 | 48.80080 | 23830 ft | 236 kts | 286° |
| 2026-04-23 17:42 | 40.84012 | 48.78008 | 23833 ft | 236 kts | 286° |
| 2026-04-23 17:43 | 40.84501 | 48.75926 | 23832 ft | 237 kts | 286° |
| 2026-04-23 17:43 | 40.84992 | 48.73837 | 23832 ft | 238 kts | 286° |
| 2026-04-23 17:43 | 40.85482 | 48.71749 | 23830 ft | 238 kts | 286° |
| 2026-04-23 17:43 | 40.85972 | 48.69662 | 23823 ft | 238 kts | 286° |
| 2026-04-23 17:44 | 40.86462 | 48.67571 | 23825 ft | 238 kts | 286° |
| 2026-04-23 17:44 | 40.86944 | 48.65510 | 23824 ft | 238 kts | 286° |
| 2026-04-23 17:44 | 40.87922 | 48.61328 | 23826 ft | 238 kts | 286° |
| 2026-04-23 17:45 | 40.88409 | 48.59242 | 23826 ft | 238 kts | 286° |
| 2026-04-23 17:45 | 40.89385 | 48.55054 | 23824 ft | 238 kts | 286° |
| 2026-04-23 17:45 | 40.89872 | 48.52963 | 23823 ft | 238 kts | 286° |
| 2026-04-23 17:46 | 40.90843 | 48.48788 | 23826 ft | 237 kts | 286° |
| 2026-04-23 17:46 | 40.91320 | 48.46731 | 23822 ft | 237 kts | 286° |
| 2026-04-23 17:46 | 40.91803 | 48.44649 | 23820 ft | 237 kts | 286° |
| 2026-04-23 17:47 | 40.92287 | 48.42560 | 23826 ft | 238 kts | 286° |
| 2026-04-23 17:47 | 40.92772 | 48.40466 | 23825 ft | 238 kts | 285° |
| 2026-04-23 17:47 | 40.93744 | 48.36261 | 23827 ft | 238 kts | 285° |
| 2026-04-23 17:48 | 40.94227 | 48.34171 | 23825 ft | 237 kts | 285° |
| 2026-04-23 17:48 | 40.94709 | 48.32080 | 23822 ft | 237 kts | 285° |
| 2026-04-23 17:48 | 40.95189 | 48.29996 | 23824 ft | 237 kts | 285° |
| 2026-04-23 17:48 | 40.95668 | 48.27916 | 23825 ft | 237 kts | 285° |
| 2026-04-23 17:49 | 40.96149 | 48.25826 | 23829 ft | 237 kts | 285° |
| 2026-04-23 17:49 | 40.96630 | 48.23735 | 23832 ft | 238 kts | 285° |
| 2026-04-23 17:49 | 40.97110 | 48.21641 | 23833 ft | 238 kts | 285° |
| 2026-04-23 17:49 | 40.97585 | 48.19573 | 23835 ft | 238 kts | 285° |
| 2026-04-23 17:50 | 40.98065 | 48.17477 | 23835 ft | 238 kts | 285° |
| 2026-04-23 17:50 | 40.99021 | 48.13293 | 23826 ft | 237 kts | 285° |
| 2026-04-23 17:50 | 40.99502 | 48.11189 | 23831 ft | 236 kts | 285° |
| 2026-04-23 17:51 | 40.99972 | 48.09131 | 23827 ft | 236 kts | 285° |
| 2026-04-23 17:51 | 41.00445 | 48.07057 | 23833 ft | 235 kts | 285° |
| 2026-04-23 17:51 | 41.01394 | 48.02887 | 23830 ft | 238 kts | 285° |
| 2026-04-23 17:52 | 41.01873 | 48.00782 | 23830 ft | 239 kts | 285° |
| 2026-04-23 17:52 | 41.02832 | 47.96567 | 23836 ft | 238 kts | 285° |
| 2026-04-23 17:52 | 41.03308 | 47.94470 | 23828 ft | 236 kts | 284° |
| 2026-04-23 17:53 | 41.04246 | 47.90330 | 23836 ft | 235 kts | 284° |
| 2026-04-23 17:53 | 41.04714 | 47.88256 | 23832 ft | 235 kts | 284° |
| 2026-04-23 17:53 | 41.05180 | 47.86192 | 23840 ft | 234 kts | 284° |
| 2026-04-23 17:54 | 41.05647 | 47.84122 | 23841 ft | 235 kts | 284° |
| 2026-04-23 17:54 | 41.06116 | 47.82041 | 23842 ft | 236 kts | 284° |
| 2026-04-23 17:54 | 41.07056 | 47.77870 | 23838 ft | 236 kts | 284° |
| 2026-04-23 17:55 | 41.07992 | 47.73707 | 23832 ft | 236 kts | 283° |
| 2026-04-23 17:55 | 41.08457 | 47.71638 | 23837 ft | 233 kts | 284° |
| 2026-04-23 17:55 | 41.08919 | 47.69577 | 23835 ft | 233 kts | 284° |
| 2026-04-23 17:56 | 41.09380 | 47.67517 | 23844 ft | 233 kts | 284° |
| 2026-04-23 17:56 | 41.10302 | 47.63400 | 23848 ft | 233 kts | 284° |
| 2026-04-23 17:56 | 41.10759 | 47.61357 | 23842 ft | 234 kts | 284° |
| 2026-04-23 17:57 | 41.11222 | 47.59282 | 23853 ft | 234 kts | 284° |
| 2026-04-23 17:57 | 41.11683 | 47.57217 | 23843 ft | 233 kts | 283° |
| 2026-04-23 17:57 | 41.12600 | 47.53097 | 23838 ft | 235 kts | 283° |
| 2026-04-23 17:58 | 41.13062 | 47.51017 | 23844 ft | 235 kts | 283° |
| 2026-04-23 17:58 | 41.13525 | 47.48933 | 23844 ft | 235 kts | 283° |
| 2026-04-23 17:58 | 41.13986 | 47.46855 | 23839 ft | 234 kts | 283° |
| 2026-04-23 17:58 | 41.14443 | 47.44795 | 23847 ft | 233 kts | 283° |
| 2026-04-23 17:59 | 41.14902 | 47.42723 | 23854 ft | 234 kts | 283° |
| 2026-04-23 17:59 | 41.15359 | 47.40657 | 23848 ft | 233 kts | 283° |
| 2026-04-23 17:59 | 41.15814 | 47.38604 | 23848 ft | 232 kts | 283° |
| 2026-04-23 17:59 | 41.16269 | 47.36546 | 23855 ft | 232 kts | 283° |
| 2026-04-23 18:00 | 41.16717 | 47.34511 | 23855 ft | 232 kts | 283° |
| 2026-04-23 18:00 | 41.17170 | 47.32455 | 23855 ft | 232 kts | 283° |
| 2026-04-23 18:00 | 41.17622 | 47.30404 | 23860 ft | 231 kts | 283° |
| 2026-04-23 18:00 | 41.18074 | 47.28353 | 23858 ft | 231 kts | 283° |
| 2026-04-23 18:01 | 41.18523 | 47.26308 | 23862 ft | 230 kts | 283° |
| 2026-04-23 18:01 | 41.18972 | 47.24267 | 23860 ft | 230 kts | 283° |
| 2026-04-23 18:01 | 41.19421 | 47.22218 | 23862 ft | 231 kts | 283° |
| 2026-04-23 18:01 | 41.19869 | 47.20174 | 23865 ft | 231 kts | 283° |
| 2026-04-23 18:02 | 41.20166 | 47.18819 | 23876 ft | 230 kts | 283° |
| 2026-04-23 18:02 | 41.20758 | 47.16117 | 23872 ft | 230 kts | 283° |
| 2026-04-23 18:02 | 41.21203 | 47.14079 | 23867 ft | 229 kts | 283° |
| 2026-04-23 18:02 | 41.21648 | 47.12043 | 23868 ft | 229 kts | 283° |
| 2026-04-23 18:03 | 41.22091 | 47.10011 | 23866 ft | 229 kts | 283° |
| 2026-04-23 18:03 | 41.22533 | 47.07984 | 23867 ft | 228 kts | 283° |
| 2026-04-23 18:03 | 41.22974 | 47.05960 | 23864 ft | 228 kts | 283° |
| 2026-04-23 18:03 | 41.23414 | 47.03939 | 23865 ft | 227 kts | 283° |
| 2026-04-23 18:04 | 41.23853 | 47.01921 | 23866 ft | 227 kts | 283° |
| 2026-04-23 18:04 | 41.24290 | 46.99908 | 23860 ft | 227 kts | 283° |
| 2026-04-23 18:04 | 41.24728 | 46.97893 | 23859 ft | 226 kts | 283° |
| 2026-04-23 18:04 | 41.25165 | 46.95880 | 23861 ft | 226 kts | 283° |
| 2026-04-23 18:05 | 41.25596 | 46.93890 | 23860 ft | 226 kts | 283° |
| 2026-04-23 18:05 | 41.26030 | 46.91885 | 23859 ft | 226 kts | 283° |
| 2026-04-23 18:05 | 41.26465 | 46.89872 | 23863 ft | 226 kts | 283° |
| 2026-04-23 18:05 | 41.26898 | 46.87870 | 23859 ft | 225 kts | 283° |
| 2026-04-23 18:06 | 41.27331 | 46.85864 | 23864 ft | 225 kts | 283° |
| 2026-04-23 18:06 | 41.27762 | 46.83861 | 23864 ft | 225 kts | 282° |
| 2026-04-23 18:06 | 41.28192 | 46.81866 | 23865 ft | 225 kts | 282° |
| 2026-04-23 18:06 | 41.28619 | 46.79881 | 23862 ft | 225 kts | 282° |
| 2026-04-23 18:07 | 41.29049 | 46.77882 | 23865 ft | 225 kts | 282° |
| 2026-04-23 18:07 | 41.29478 | 46.75885 | 23868 ft | 224 kts | 282° |
| 2026-04-23 18:07 | 41.29828 | 46.73871 | 23867 ft | 222 kts | 277° |
| 2026-04-23 18:07 | 41.30104 | 46.71849 | 23868 ft | 222 kts | 277° |
| 2026-04-23 18:08 | 41.30294 | 46.70510 | 23869 ft | 222 kts | 278° |
| 2026-04-23 18:08 | 41.30674 | 46.67835 | 23865 ft | 222 kts | 277° |
| 2026-04-23 18:08 | 41.30958 | 46.65816 | 23867 ft | 221 kts | 277° |
| 2026-04-23 18:08 | 41.31241 | 46.63801 | 23868 ft | 221 kts | 277° |
| 2026-04-23 18:09 | 41.31523 | 46.61790 | 23865 ft | 221 kts | 277° |
| 2026-04-23 18:09 | 41.31805 | 46.59777 | 23865 ft | 221 kts | 278° |
| 2026-04-23 18:09 | 41.32087 | 46.57761 | 23863 ft | 221 kts | 278° |
| 2026-04-23 18:09 | 41.32368 | 46.55748 | 23863 ft | 221 kts | 277° |
| 2026-04-23 18:10 | 41.32646 | 46.53758 | 23864 ft | 222 kts | 277° |
| 2026-04-23 18:10 | 41.32928 | 46.51734 | 23862 ft | 222 kts | 277° |
| 2026-04-23 18:10 | 41.33210 | 46.49708 | 23864 ft | 222 kts | 277° |
| 2026-04-23 18:10 | 41.33491 | 46.47684 | 23860 ft | 223 kts | 277° |
| 2026-04-23 18:11 | 41.33772 | 46.45656 | 23862 ft | 222 kts | 277° |
| 2026-04-23 18:11 | 41.34053 | 46.43629 | 23854 ft | 222 kts | 277° |
| 2026-04-23 18:11 | 41.34333 | 46.41602 | 23852 ft | 222 kts | 277° |
| 2026-04-23 18:11 | 41.34612 | 46.39582 | 23853 ft | 222 kts | 277° |
| 2026-04-23 18:12 | 41.34889 | 46.37573 | 23850 ft | 222 kts | 277° |
| 2026-04-23 18:12 | 41.35169 | 46.35542 | 23844 ft | 222 kts | 277° |
| 2026-04-23 18:12 | 41.35444 | 46.33542 | 23843 ft | 222 kts | 277° |
| 2026-04-23 18:12 | 41.35724 | 46.31505 | 23838 ft | 222 kts | 277° |
| 2026-04-23 18:13 | 41.36000 | 46.29494 | 23835 ft | 222 kts | 277° |
| 2026-04-23 18:13 | 41.36278 | 46.27468 | 23836 ft | 222 kts | 277° |
| 2026-04-23 18:13 | 41.36555 | 46.25442 | 23833 ft | 222 kts | 277° |
| 2026-04-23 18:13 | 41.36829 | 46.23438 | 23830 ft | 222 kts | 277° |
| 2026-04-23 18:14 | 41.37012 | 46.22099 | 23830 ft | 221 kts | 277° |
| 2026-04-23 18:14 | 41.37379 | 46.19400 | 23830 ft | 221 kts | 277° |
| 2026-04-23 18:14 | 41.37654 | 46.17382 | 23828 ft | 221 kts | 277° |
| 2026-04-23 18:14 | 41.37925 | 46.15388 | 23826 ft | 222 kts | 277° |
| 2026-04-23 18:15 | 41.38199 | 46.13365 | 23825 ft | 222 kts | 277° |
| 2026-04-23 18:15 | 41.38474 | 46.11338 | 23824 ft | 223 kts | 277° |
| 2026-04-23 18:15 | 41.38751 | 46.09295 | 23822 ft | 223 kts | 277° |
| 2026-04-23 18:15 | 41.39026 | 46.07260 | 23825 ft | 223 kts | 277° |
| 2026-04-23 18:16 | 41.39301 | 46.05221 | 23817 ft | 223 kts | 277° |
| 2026-04-23 18:16 | 41.39575 | 46.03191 | 23819 ft | 223 kts | 277° |
| 2026-04-23 18:16 | 41.39845 | 46.01186 | 23821 ft | 223 kts | 277° |
| 2026-04-23 18:17 | 41.40391 | 45.97118 | 23820 ft | 222 kts | 277° |
| 2026-04-23 18:17 | 41.40663 | 45.95090 | 23823 ft | 223 kts | 277° |
| 2026-04-23 18:17 | 41.40935 | 45.93057 | 23817 ft | 223 kts | 277° |
| 2026-04-23 18:17 | 41.41208 | 45.91019 | 23815 ft | 223 kts | 277° |
| 2026-04-23 18:18 | 41.41480 | 45.88978 | 23816 ft | 224 kts | 277° |
| 2026-04-23 18:18 | 41.41660 | 45.87627 | 23814 ft | 224 kts | 277° |
| 2026-04-23 18:18 | 41.41932 | 45.85583 | 23815 ft | 224 kts | 277° |
| 2026-04-23 18:18 | 41.42293 | 45.82871 | 23813 ft | 224 kts | 277° |
| 2026-04-23 18:19 | 41.42565 | 45.80824 | 23812 ft | 224 kts | 277° |
| 2026-04-23 18:19 | 41.42744 | 45.79468 | 23812 ft | 224 kts | 277° |
| 2026-04-23 18:19 | 41.43015 | 45.77426 | 23808 ft | 224 kts | 277° |
| 2026-04-23 18:19 | 41.43285 | 45.75378 | 23808 ft | 224 kts | 277° |
| 2026-04-23 18:20 | 41.43555 | 45.73333 | 23804 ft | 224 kts | 277° |
| 2026-04-23 18:20 | 41.43826 | 45.71283 | 23803 ft | 225 kts | 277° |
| 2026-04-23 18:20 | 41.44098 | 45.69215 | 23806 ft | 225 kts | 277° |
| 2026-04-23 18:20 | 41.44367 | 45.67165 | 23805 ft | 225 kts | 277° |
| 2026-04-23 18:21 | 41.44638 | 45.65107 | 23803 ft | 225 kts | 277° |
| 2026-04-23 18:21 | 41.44908 | 45.63043 | 23800 ft | 226 kts | 277° |
| 2026-04-23 18:21 | 41.45178 | 45.60981 | 23801 ft | 226 kts | 277° |
| 2026-04-23 18:21 | 41.45448 | 45.58921 | 23800 ft | 226 kts | 277° |
| 2026-04-23 18:22 | 41.45713 | 45.56890 | 23798 ft | 225 kts | 277° |
| 2026-04-23 18:22 | 41.45981 | 45.54830 | 23802 ft | 226 kts | 276° |
| 2026-04-23 18:22 | 41.46250 | 45.52763 | 23798 ft | 226 kts | 276° |
| 2026-04-23 18:22 | 41.46520 | 45.50685 | 23795 ft | 227 kts | 276° |
| 2026-04-23 18:23 | 41.46790 | 45.48607 | 23795 ft | 227 kts | 276° |
| 2026-04-23 18:23 | 41.47327 | 45.44457 | 23798 ft | 227 kts | 276° |
| 2026-04-23 18:24 | 41.47860 | 45.40331 | 23794 ft | 227 kts | 276° |
| 2026-04-23 18:24 | 41.48127 | 45.38258 | 23793 ft | 227 kts | 276° |
| 2026-04-23 18:24 | 41.48372 | 45.36178 | 23795 ft | 225 kts | 273° |
| 2026-04-23 18:25 | 41.48711 | 45.32017 | 23794 ft | 226 kts | 274° |
| 2026-04-23 18:25 | 41.48889 | 45.29929 | 23796 ft | 226 kts | 274° |
| 2026-04-23 18:25 | 41.49061 | 45.27839 | 23794 ft | 227 kts | 274° |
| 2026-04-23 18:25 | 41.49231 | 45.25751 | 23797 ft | 227 kts | 274° |
| 2026-04-23 18:26 | 41.49403 | 45.23662 | 23797 ft | 226 kts | 274° |
| 2026-04-23 18:26 | 41.49574 | 45.21573 | 23804 ft | 226 kts | 274° |
| 2026-04-23 18:26 | 41.49744 | 45.19488 | 23802 ft | 227 kts | 274° |
| 2026-04-23 18:26 | 41.49913 | 45.17420 | 23801 ft | 227 kts | 273° |
| 2026-04-23 18:27 | 41.50083 | 45.15327 | 23801 ft | 227 kts | 274° |
| 2026-04-23 18:27 | 41.50253 | 45.13235 | 23803 ft | 227 kts | 273° |
| 2026-04-23 18:27 | 41.50422 | 45.11146 | 23807 ft | 226 kts | 273° |
| 2026-04-23 18:27 | 41.50590 | 45.09058 | 23805 ft | 226 kts | 273° |
| 2026-04-23 18:28 | 41.50758 | 45.06979 | 23807 ft | 226 kts | 273° |
| 2026-04-23 18:28 | 41.50925 | 45.04894 | 23809 ft | 225 kts | 273° |
| 2026-04-23 18:28 | 41.51092 | 45.02815 | 23807 ft | 225 kts | 273° |
| 2026-04-23 18:28 | 41.51259 | 45.00732 | 23807 ft | 225 kts | 274° |
| 2026-04-23 18:29 | 41.51422 | 44.98687 | 23809 ft | 224 kts | 273° |
| 2026-04-23 18:29 | 41.51587 | 44.96617 | 23810 ft | 224 kts | 273° |
| 2026-04-23 18:29 | 41.51752 | 44.94547 | 23809 ft | 225 kts | 273° |
| 2026-04-23 18:29 | 41.51916 | 44.92473 | 23809 ft | 225 kts | 273° |
| 2026-04-23 18:30 | 41.52080 | 44.90399 | 23809 ft | 225 kts | 273° |
| 2026-04-23 18:30 | 41.52244 | 44.88325 | 23814 ft | 224 kts | 273° |
| 2026-04-23 18:30 | 41.52408 | 44.86247 | 23806 ft | 225 kts | 273° |
| 2026-04-23 18:30 | 41.52571 | 44.84170 | 23813 ft | 225 kts | 273° |
| 2026-04-23 18:31 | 41.52734 | 44.82088 | 23813 ft | 225 kts | 273° |
| 2026-04-23 18:31 | 41.52895 | 44.80029 | 23812 ft | 225 kts | 273° |
| 2026-04-23 18:31 | 41.53057 | 44.77952 | 23814 ft | 225 kts | 273° |
| 2026-04-23 18:31 | 41.53218 | 44.75872 | 23817 ft | 225 kts | 273° |
| 2026-04-23 18:32 | 41.53380 | 44.73789 | 23816 ft | 225 kts | 272° |
| 2026-04-23 18:32 | 41.53541 | 44.71711 | 23819 ft | 225 kts | 273° |
| 2026-04-23 18:32 | 41.53702 | 44.69633 | 23821 ft | 225 kts | 273° |
| 2026-04-23 18:32 | 41.53862 | 44.67553 | 23824 ft | 225 kts | 272° |
| 2026-04-23 18:33 | 41.54019 | 44.65506 | 23825 ft | 224 kts | 272° |
| 2026-04-23 18:33 | 41.54178 | 44.63439 | 23828 ft | 224 kts | 272° |
| 2026-04-23 18:33 | 41.54336 | 44.61372 | 23829 ft | 223 kts | 272° |
| 2026-04-23 18:33 | 41.54493 | 44.59305 | 23828 ft | 223 kts | 272° |
| 2026-04-23 18:34 | 41.54650 | 44.57242 | 23831 ft | 223 kts | 272° |
| 2026-04-23 18:34 | 41.54807 | 44.55181 | 23831 ft | 223 kts | 272° |
| 2026-04-23 18:34 | 41.54963 | 44.53123 | 23835 ft | 223 kts | 272° |
| 2026-04-23 18:34 | 41.55118 | 44.51066 | 23839 ft | 223 kts | 272° |
| 2026-04-23 18:35 | 41.55274 | 44.49004 | 23835 ft | 223 kts | 272° |
| 2026-04-23 18:35 | 41.55429 | 44.46943 | 23837 ft | 223 kts | 272° |
| 2026-04-23 18:35 | 41.55583 | 44.44896 | 23842 ft | 222 kts | 272° |
| 2026-04-23 18:35 | 41.55737 | 44.42840 | 23840 ft | 222 kts | 272° |
| 2026-04-23 18:36 | 41.55890 | 44.40784 | 23843 ft | 223 kts | 272° |
| 2026-04-23 18:36 | 41.56043 | 44.38726 | 23839 ft | 222 kts | 272° |
| 2026-04-23 18:36 | 41.56196 | 44.36670 | 23841 ft | 222 kts | 272° |
| 2026-04-23 18:36 | 41.56348 | 44.34626 | 23837 ft | 223 kts | 272° |
| 2026-04-23 18:37 | 41.56500 | 44.32569 | 23837 ft | 223 kts | 272° |
| 2026-04-23 18:37 | 41.56652 | 44.30507 | 23836 ft | 222 kts | 271° |
| 2026-04-23 18:37 | 41.56805 | 44.28437 | 23834 ft | 222 kts | 272° |
| 2026-04-23 18:37 | 41.56955 | 44.26400 | 23845 ft | 223 kts | 272° |
| 2026-04-23 18:38 | 41.57106 | 44.24330 | 23833 ft | 223 kts | 271° |
| 2026-04-23 18:38 | 41.57258 | 44.22274 | 23838 ft | 222 kts | 272° |
| 2026-04-23 18:38 | 41.57421 | 44.20223 | 23838 ft | 222 kts | 272° |
| 2026-04-23 18:38 | 41.57587 | 44.18172 | 23840 ft | 221 kts | 272° |
| 2026-04-23 18:39 | 41.57748 | 44.16128 | 23838 ft | 221 kts | 272° |
| 2026-04-23 18:39 | 41.57907 | 44.14089 | 23839 ft | 221 kts | 272° |
| 2026-04-23 18:39 | 41.58067 | 44.12041 | 23837 ft | 220 kts | 272° |
| 2026-04-23 18:39 | 41.58224 | 44.10037 | 23839 ft | 220 kts | 272° |
| 2026-04-23 18:40 | 41.58382 | 44.08001 | 23840 ft | 220 kts | 272° |
| 2026-04-23 18:40 | 41.58540 | 44.05974 | 23840 ft | 219 kts | 272° |
| 2026-04-23 18:40 | 41.58697 | 44.03953 | 23842 ft | 219 kts | 272° |
| 2026-04-23 18:40 | 41.58853 | 44.01932 | 23841 ft | 218 kts | 272° |
| 2026-04-23 18:41 | 41.59009 | 43.99912 | 23840 ft | 218 kts | 272° |
| 2026-04-23 18:41 | 41.59164 | 43.97897 | 23842 ft | 218 kts | 271° |
| 2026-04-23 18:41 | 41.59319 | 43.95884 | 23843 ft | 218 kts | 271° |
| 2026-04-23 18:41 | 41.59473 | 43.93872 | 23844 ft | 217 kts | 272° |
| 2026-04-23 18:42 | 41.59627 | 43.91864 | 23839 ft | 217 kts | 271° |
| 2026-04-23 18:42 | 41.59779 | 43.89861 | 23846 ft | 216 kts | 271° |
| 2026-04-23 18:42 | 41.59932 | 43.87863 | 23849 ft | 216 kts | 271° |
| 2026-04-23 18:42 | 41.60083 | 43.85867 | 23850 ft | 215 kts | 272° |
| 2026-04-23 18:43 | 41.60234 | 43.83883 | 23849 ft | 214 kts | 272° |
| 2026-04-23 18:43 | 41.60381 | 43.81930 | 23852 ft | 214 kts | 272° |
| 2026-04-23 18:43 | 41.60530 | 43.79953 | 23850 ft | 213 kts | 271° |
| 2026-04-23 18:43 | 41.60680 | 43.77963 | 23847 ft | 215 kts | 271° |
| 2026-04-23 18:44 | 41.60830 | 43.75973 | 23851 ft | 214 kts | 271° |
| 2026-04-23 18:44 | 41.60978 | 43.74000 | 23854 ft | 213 kts | 271° |
| 2026-04-23 18:44 | 41.61125 | 43.72031 | 23853 ft | 213 kts | 271° |
| 2026-04-23 18:44 | 41.61271 | 43.70063 | 23863 ft | 213 kts | 271° |
| 2026-04-23 18:45 | 41.61418 | 43.68090 | 23864 ft | 214 kts | 271° |
| 2026-04-23 18:45 | 41.61563 | 43.66132 | 23864 ft | 214 kts | 271° |
| 2026-04-23 18:45 | 41.61710 | 43.64145 | 23859 ft | 215 kts | 271° |
| 2026-04-23 18:45 | 41.61857 | 43.62160 | 23862 ft | 214 kts | 271° |
| 2026-04-23 18:46 | 41.62003 | 43.60180 | 23863 ft | 213 kts | 271° |
| 2026-04-23 18:46 | 41.62148 | 43.58206 | 23871 ft | 213 kts | 271° |
| 2026-04-23 18:46 | 41.62293 | 43.56228 | 23871 ft | 214 kts | 271° |
| 2026-04-23 18:46 | 41.62438 | 43.54250 | 23870 ft | 214 kts | 271° |
| 2026-04-23 18:47 | 41.62582 | 43.52272 | 23871 ft | 213 kts | 271° |
| 2026-04-23 18:47 | 41.62726 | 43.50304 | 23873 ft | 213 kts | 271° |
| 2026-04-23 18:47 | 41.62867 | 43.48363 | 23875 ft | 212 kts | 271° |
| 2026-04-23 18:47 | 41.63010 | 43.46399 | 23877 ft | 212 kts | 271° |
| 2026-04-23 18:48 | 41.63153 | 43.44438 | 23876 ft | 211 kts | 271° |
| 2026-04-23 18:48 | 41.63295 | 43.42484 | 23884 ft | 211 kts | 271° |
| 2026-04-23 18:48 | 41.63436 | 43.40532 | 23882 ft | 211 kts | 270° |
| 2026-04-23 18:48 | 41.63577 | 43.38580 | 23883 ft | 211 kts | 270° |
| 2026-04-23 18:49 | 41.63718 | 43.36624 | 23879 ft | 211 kts | 271° |
| 2026-04-23 18:49 | 41.63858 | 43.34671 | 23882 ft | 212 kts | 270° |
| 2026-04-23 18:49 | 41.63999 | 43.32706 | 23885 ft | 212 kts | 270° |
| 2026-04-23 18:49 | 41.64139 | 43.30748 | 23881 ft | 212 kts | 270° |
| 2026-04-23 18:50 | 41.64232 | 43.29448 | 23886 ft | 211 kts | 270° |
| 2026-04-23 18:50 | 41.64418 | 43.26829 | 23884 ft | 212 kts | 270° |
| 2026-04-23 18:50 | 41.64556 | 43.24895 | 23888 ft | 211 kts | 271° |
| 2026-04-23 18:50 | 41.64695 | 43.22946 | 23887 ft | 210 kts | 270° |
| 2026-04-23 18:51 | 41.64832 | 43.20990 | 23887 ft | 211 kts | 270° |
| 2026-04-23 18:51 | 41.64970 | 43.19033 | 23890 ft | 211 kts | 270° |
| 2026-04-23 18:51 | 41.65108 | 43.17073 | 23889 ft | 211 kts | 270° |
| 2026-04-23 18:51 | 41.65244 | 43.15144 | 23895 ft | 211 kts | 270° |
| 2026-04-23 18:52 | 41.65381 | 43.13188 | 23892 ft | 211 kts | 270° |
| 2026-04-23 18:52 | 41.65517 | 43.11231 | 23896 ft | 211 kts | 270° |
| 2026-04-23 18:52 | 41.65653 | 43.09278 | 23898 ft | 211 kts | 270° |
| 2026-04-23 18:52 | 41.65789 | 43.07320 | 23896 ft | 211 kts | 270° |
| 2026-04-23 18:53 | 41.65925 | 43.05356 | 23900 ft | 211 kts | 270° |
| 2026-04-23 18:53 | 41.66059 | 43.03416 | 23899 ft | 211 kts | 270° |
| 2026-04-23 18:53 | 41.66194 | 43.01457 | 23898 ft | 211 kts | 270° |
| 2026-04-23 18:53 | 41.66329 | 42.99503 | 23901 ft | 211 kts | 270° |
| 2026-04-23 18:54 | 41.66463 | 42.97547 | 23902 ft | 211 kts | 270° |
| 2026-04-23 18:54 | 41.66597 | 42.95590 | 23900 ft | 211 kts | 270° |
| 2026-04-23 18:54 | 41.66731 | 42.93633 | 23899 ft | 211 kts | 270° |
| 2026-04-23 18:54 | 41.66864 | 42.91678 | 23902 ft | 211 kts | 270° |
| 2026-04-23 18:55 | 41.66996 | 42.89724 | 23902 ft | 210 kts | 270° |
| 2026-04-23 18:55 | 41.67127 | 42.87796 | 23898 ft | 211 kts | 270° |
| 2026-04-23 18:55 | 41.67231 | 42.85853 | 23905 ft | 208 kts | 265° |
| 2026-04-23 18:55 | 41.67086 | 42.83944 | 23899 ft | 206 kts | 261° |
| 2026-04-23 18:56 | 41.66974 | 42.82652 | 23898 ft | 207 kts | 261° |
| 2026-04-23 18:56 | 41.66767 | 42.80122 | 23895 ft | 207 kts | 262° |
| 2026-04-23 18:56 | 41.66611 | 42.78203 | 23905 ft | 208 kts | 262° |
| 2026-04-23 18:56 | 41.66452 | 42.76270 | 23911 ft | 209 kts | 262° |
| 2026-04-23 18:57 | 41.66293 | 42.74337 | 23904 ft | 209 kts | 261° |
| 2026-04-23 18:57 | 41.66134 | 42.72403 | 23904 ft | 209 kts | 262° |
| 2026-04-23 18:57 | 41.65974 | 42.70470 | 23902 ft | 209 kts | 262° |
| 2026-04-23 18:57 | 41.65815 | 42.68546 | 23903 ft | 208 kts | 261° |
| 2026-04-23 18:58 | 41.65658 | 42.66648 | 23914 ft | 208 kts | 262° |
| 2026-04-23 18:58 | 41.65497 | 42.64725 | 23913 ft | 208 kts | 262° |
| 2026-04-23 18:58 | 41.65336 | 42.62789 | 23911 ft | 210 kts | 262° |
| 2026-04-23 18:58 | 41.65174 | 42.60851 | 23921 ft | 209 kts | 262° |
| 2026-04-23 18:59 | 41.65013 | 42.58920 | 23913 ft | 208 kts | 262° |
| 2026-04-23 18:59 | 41.64852 | 42.56998 | 23913 ft | 207 kts | 261° |
| 2026-04-23 18:59 | 41.64690 | 42.55085 | 23920 ft | 207 kts | 262° |
| 2026-04-23 18:59 | 41.64528 | 42.53156 | 23922 ft | 209 kts | 262° |
| 2026-04-23 19:00 | 41.64367 | 42.51253 | 23933 ft | 209 kts | 262° |
| 2026-04-23 19:00 | 41.64203 | 42.49307 | 23925 ft | 211 kts | 262° |
| 2026-04-23 19:00 | 41.64037 | 42.47349 | 23931 ft | 212 kts | 262° |
| 2026-04-23 19:00 | 41.63872 | 42.45396 | 23929 ft | 211 kts | 262° |
| 2026-04-23 19:01 | 41.63706 | 42.43449 | 23935 ft | 210 kts | 262° |
| 2026-04-23 19:01 | 41.63540 | 42.41501 | 23936 ft | 211 kts | 262° |
| 2026-04-23 19:01 | 41.63374 | 42.39560 | 23946 ft | 209 kts | 262° |
| 2026-04-23 19:01 | 41.63209 | 42.37626 | 23929 ft | 208 kts | 262° |
| 2026-04-23 19:02 | 41.63101 | 42.36360 | 23943 ft | 206 kts | 262° |
| 2026-04-23 19:02 | 41.62883 | 42.33828 | 23946 ft | 204 kts | 261° |
| 2026-04-23 19:02 | 41.62719 | 42.31931 | 23952 ft | 207 kts | 261° |
| 2026-04-23 19:02 | 41.62555 | 42.30028 | 23952 ft | 209 kts | 262° |
| 2026-04-23 19:03 | 41.62388 | 42.28095 | 23950 ft | 209 kts | 262° |
| 2026-04-23 19:03 | 41.62220 | 42.26155 | 23958 ft | 210 kts | 262° |
| 2026-04-23 19:03 | 41.62052 | 42.24221 | 23958 ft | 209 kts | 262° |
| 2026-04-23 19:03 | 41.61885 | 42.22293 | 23956 ft | 209 kts | 261° |
| 2026-04-23 19:04 | 41.61717 | 42.20365 | 23957 ft | 208 kts | 261° |
| 2026-04-23 19:04 | 41.61548 | 42.18437 | 23968 ft | 210 kts | 261° |
| 2026-04-23 19:04 | 41.61380 | 42.16512 | 23959 ft | 208 kts | 261° |
| 2026-04-23 19:04 | 41.61215 | 42.14623 | 23965 ft | 207 kts | 261° |
| 2026-04-23 19:05 | 41.61048 | 42.12726 | 23966 ft | 205 kts | 261° |
| 2026-04-23 19:05 | 41.60882 | 42.10837 | 23979 ft | 206 kts | 261° |
| 2026-04-23 19:05 | 41.60714 | 42.08932 | 23978 ft | 208 kts | 261° |
| 2026-04-23 19:05 | 41.60544 | 42.07014 | 23983 ft | 209 kts | 261° |
| 2026-04-23 19:06 | 41.60429 | 42.05709 | 23983 ft | 209 kts | 261° |
| 2026-04-23 19:06 | 41.60260 | 42.03805 | 23988 ft | 209 kts | 261° |
| 2026-04-23 19:06 | 41.60089 | 42.01868 | 23992 ft | 210 kts | 261° |
| 2026-04-23 19:06 | 41.59915 | 41.99915 | 23993 ft | 211 kts | 261° |
| 2026-04-23 19:07 | 41.59743 | 41.97978 | 23997 ft | 210 kts | 261° |
| 2026-04-23 19:07 | 41.59570 | 41.96040 | 24001 ft | 209 kts | 261° |
| 2026-04-23 19:07 | 41.59397 | 41.94110 | 24007 ft | 209 kts | 261° |
| 2026-04-23 19:07 | 41.59225 | 41.92189 | 24008 ft | 208 kts | 261° |
| 2026-04-23 19:08 | 41.59052 | 41.90271 | 24007 ft | 208 kts | 261° |
| 2026-04-23 19:08 | 41.58880 | 41.88355 | 24013 ft | 208 kts | 261° |
| 2026-04-23 19:08 | 41.58707 | 41.86438 | 24015 ft | 208 kts | 261° |
| 2026-04-23 19:08 | 41.58533 | 41.84516 | 24014 ft | 208 kts | 261° |
| 2026-04-23 19:09 | 41.58362 | 41.82615 | 24018 ft | 209 kts | 261° |
| 2026-04-23 19:09 | 41.58187 | 41.80685 | 24022 ft | 209 kts | 260° |
| 2026-04-23 19:09 | 41.58012 | 41.78756 | 24012 ft | 208 kts | 260° |
| 2026-04-23 19:09 | 41.57837 | 41.76838 | 24026 ft | 209 kts | 260° |
| 2026-04-23 19:10 | 41.57661 | 41.74911 | 24023 ft | 208 kts | 261° |
| 2026-04-23 19:10 | 41.57486 | 41.72992 | 24026 ft | 209 kts | 260° |
| 2026-04-23 19:10 | 41.57310 | 41.71067 | 24024 ft | 209 kts | 260° |
| 2026-04-23 19:10 | 41.57133 | 41.69141 | 24025 ft | 209 kts | 260° |
| 2026-04-23 19:11 | 41.56957 | 41.67222 | 24024 ft | 208 kts | 260° |
| 2026-04-23 19:11 | 41.56780 | 41.65297 | 24022 ft | 208 kts | 260° |
| 2026-04-23 19:11 | 41.56604 | 41.63387 | 24022 ft | 207 kts | 260° |
| 2026-04-23 19:11 | 41.56427 | 41.61476 | 24021 ft | 207 kts | 260° |
| 2026-04-23 19:12 | 41.56259 | 41.59569 | 24023 ft | 207 kts | 261° |
| 2026-04-23 19:12 | 41.56123 | 41.57658 | 24029 ft | 207 kts | 262° |
| 2026-04-23 19:12 | 41.55987 | 41.55738 | 24026 ft | 208 kts | 261° |
| 2026-04-23 19:12 | 41.55846 | 41.53845 | 24027 ft | 207 kts | 261° |
| 2026-04-23 19:13 | 41.55701 | 41.51929 | 24025 ft | 207 kts | 261° |
| 2026-04-23 19:13 | 41.55557 | 41.50014 | 24026 ft | 208 kts | 261° |
| 2026-04-23 19:13 | 41.55413 | 41.48092 | 24029 ft | 208 kts | 261° |
| 2026-04-23 19:13 | 41.55268 | 41.46174 | 24026 ft | 208 kts | 261° |
| 2026-04-23 19:14 | 41.55123 | 41.44243 | 24023 ft | 209 kts | 261° |
| 2026-04-23 19:14 | 41.54978 | 41.42331 | 24028 ft | 209 kts | 261° |
| 2026-04-23 19:14 | 41.54831 | 41.40399 | 24022 ft | 209 kts | 261° |
| 2026-04-23 19:14 | 41.54684 | 41.38461 | 24027 ft | 210 kts | 261° |
| 2026-04-23 19:15 | 41.54536 | 41.36519 | 24026 ft | 210 kts | 261° |
| 2026-04-23 19:15 | 41.54388 | 41.34579 | 24027 ft | 210 kts | 261° |
| 2026-04-23 19:15 | 41.54240 | 41.32643 | 24017 ft | 210 kts | 261° |
| 2026-04-23 19:15 | 41.54091 | 41.30704 | 24023 ft | 210 kts | 261° |
| 2026-04-23 19:16 | 41.53942 | 41.28764 | 24023 ft | 210 kts | 260° |
| 2026-04-23 19:16 | 41.53792 | 41.26821 | 24024 ft | 210 kts | 260° |
| 2026-04-23 19:16 | 41.53642 | 41.24881 | 24020 ft | 210 kts | 260° |
| 2026-04-23 19:17 | 41.53341 | 41.20997 | 24023 ft | 210 kts | 260° |
| 2026-04-23 19:17 | 41.53192 | 41.19077 | 24023 ft | 210 kts | 260° |
| 2026-04-23 19:17 | 41.53040 | 41.17129 | 24021 ft | 210 kts | 260° |
| 2026-04-23 19:17 | 41.52888 | 41.15188 | 24015 ft | 211 kts | 260° |
| 2026-04-23 19:18 | 41.52736 | 41.13243 | 24019 ft | 210 kts | 260° |
| 2026-04-23 19:18 | 41.52584 | 41.11304 | 24016 ft | 210 kts | 260° |
| 2026-04-23 19:18 | 41.52431 | 41.09363 | 24021 ft | 210 kts | 260° |
| 2026-04-23 19:18 | 41.52278 | 41.07418 | 24017 ft | 210 kts | 260° |
| 2026-04-23 19:19 | 41.51972 | 41.03540 | 24024 ft | 210 kts | 259° |
| 2026-04-23 19:19 | 41.51818 | 41.01603 | 24021 ft | 210 kts | 259° |
| 2026-04-23 19:20 | 41.51511 | 40.97744 | 24019 ft | 210 kts | 259° |
| 2026-04-23 19:20 | 41.51356 | 40.95803 | 24023 ft | 210 kts | 259° |
| 2026-04-23 19:20 | 41.51201 | 40.93869 | 24022 ft | 210 kts | 259° |
| 2026-04-23 19:20 | 41.51046 | 40.91935 | 24021 ft | 210 kts | 259° |
| 2026-04-23 19:21 | 41.50891 | 40.90000 | 24021 ft | 209 kts | 259° |
| 2026-04-23 19:21 | 41.50580 | 40.86137 | 24024 ft | 209 kts | 259° |
| 2026-04-23 19:21 | 41.50424 | 40.84210 | 24022 ft | 209 kts | 259° |
| 2026-04-23 19:22 | 41.50268 | 40.82285 | 24022 ft | 209 kts | 259° |
| 2026-04-23 19:22 | 41.50112 | 40.80360 | 24023 ft | 208 kts | 259° |
| 2026-04-23 19:22 | 41.49800 | 40.76533 | 24023 ft | 208 kts | 259° |
| 2026-04-23 19:23 | 41.49643 | 40.74611 | 24021 ft | 208 kts | 259° |
| 2026-04-23 19:23 | 41.49486 | 40.72694 | 24021 ft | 208 kts | 259° |
| 2026-04-23 19:23 | 41.49329 | 40.70775 | 24024 ft | 208 kts | 259° |
| 2026-04-23 19:24 | 41.49013 | 40.66942 | 24024 ft | 207 kts | 259° |
| 2026-04-23 19:24 | 41.48855 | 40.65030 | 24025 ft | 207 kts | 259° |
| 2026-04-23 19:24 | 41.48539 | 40.61213 | 24027 ft | 207 kts | 259° |
| 2026-04-23 19:25 | 41.48222 | 40.57392 | 24027 ft | 207 kts | 259° |
| 2026-04-23 19:25 | 41.47906 | 40.53612 | 24023 ft | 206 kts | 259° |
| 2026-04-23 19:26 | 41.47586 | 40.49800 | 24025 ft | 206 kts | 259° |
| 2026-04-23 19:26 | 41.47426 | 40.47896 | 24027 ft | 206 kts | 259° |
| 2026-04-23 19:27 | 41.47106 | 40.44093 | 24029 ft | 206 kts | 259° |
| 2026-04-23 19:27 | 41.46631 | 40.38479 | 24026 ft | 203 kts | 258° |
| 2026-04-23 19:28 | 41.46311 | 40.34742 | 24026 ft | 203 kts | 258° |
| 2026-04-23 19:28 | 41.45991 | 40.30993 | 24027 ft | 204 kts | 258° |
| 2026-04-23 19:29 | 41.45830 | 40.29115 | 24028 ft | 204 kts | 258° |
| 2026-04-23 19:29 | 41.45507 | 40.25360 | 24026 ft | 204 kts | 258° |
| 2026-04-23 19:30 | 41.45183 | 40.21603 | 24023 ft | 204 kts | 258° |
| 2026-04-23 19:30 | 41.45020 | 40.19723 | 24024 ft | 204 kts | 258° |
| 2026-04-23 19:30 | 41.44694 | 40.15971 | 24023 ft | 204 kts | 258° |
| 2026-04-23 19:31 | 41.44533 | 40.14115 | 24025 ft | 204 kts | 258° |
| 2026-04-23 19:31 | 41.44369 | 40.12239 | 24023 ft | 204 kts | 258° |
| 2026-04-23 19:31 | 41.44205 | 40.10358 | 24026 ft | 204 kts | 258° |
| 2026-04-23 19:31 | 41.44041 | 40.08483 | 24024 ft | 204 kts | 258° |
| 2026-04-23 19:32 | 41.43876 | 40.06607 | 24023 ft | 204 kts | 258° |
| 2026-04-23 19:32 | 41.43711 | 40.04730 | 24024 ft | 204 kts | 258° |
| 2026-04-23 19:32 | 41.43546 | 40.02855 | 24024 ft | 204 kts | 258° |
| 2026-04-23 19:32 | 41.43380 | 40.00978 | 24024 ft | 203 kts | 258° |
| 2026-04-23 19:33 | 41.43215 | 39.99103 | 24022 ft | 203 kts | 258° |
| 2026-04-23 19:33 | 41.43049 | 39.97233 | 24025 ft | 203 kts | 258° |
| 2026-04-23 19:33 | 41.42718 | 39.93511 | 24020 ft | 203 kts | 258° |
| 2026-04-23 19:34 | 41.42552 | 39.91639 | 24022 ft | 203 kts | 258° |
| 2026-04-23 19:34 | 41.42385 | 39.89775 | 24022 ft | 203 kts | 258° |
| 2026-04-23 19:34 | 41.42052 | 39.86047 | 24024 ft | 202 kts | 258° |
| 2026-04-23 19:35 | 41.41884 | 39.84182 | 24023 ft | 202 kts | 258° |
| 2026-04-23 19:35 | 41.41718 | 39.82334 | 24025 ft | 202 kts | 258° |
| 2026-04-23 19:35 | 41.41550 | 39.80472 | 24023 ft | 202 kts | 258° |
| 2026-04-23 19:35 | 41.41382 | 39.78604 | 24022 ft | 202 kts | 258° |
| 2026-04-23 19:36 | 41.41214 | 39.76749 | 24021 ft | 202 kts | 258° |
| 2026-04-23 19:36 | 41.41046 | 39.74895 | 24024 ft | 201 kts | 258° |
| 2026-04-23 19:36 | 41.40878 | 39.73045 | 24021 ft | 201 kts | 258° |
| 2026-04-23 19:36 | 41.40710 | 39.71191 | 24025 ft | 201 kts | 258° |
| 2026-04-23 19:37 | 41.40542 | 39.69346 | 24026 ft | 201 kts | 258° |
| 2026-04-23 19:37 | 41.40373 | 39.67499 | 24026 ft | 201 kts | 258° |
| 2026-04-23 19:37 | 41.40205 | 39.65655 | 24028 ft | 201 kts | 258° |
| 2026-04-23 19:37 | 41.40036 | 39.63813 | 24027 ft | 200 kts | 258° |
| 2026-04-23 19:38 | 41.39867 | 39.61966 | 24027 ft | 200 kts | 258° |
| 2026-04-23 19:38 | 41.39698 | 39.60126 | 24029 ft | 200 kts | 258° |
| 2026-04-23 19:38 | 41.39530 | 39.58305 | 24029 ft | 200 kts | 258° |
| 2026-04-23 19:38 | 41.39360 | 39.56461 | 24028 ft | 200 kts | 258° |
| 2026-04-23 19:39 | 41.39190 | 39.54624 | 24027 ft | 200 kts | 258° |
| 2026-04-23 19:39 | 41.39020 | 39.52783 | 24026 ft | 200 kts | 258° |
| 2026-04-23 19:39 | 41.38850 | 39.50951 | 24026 ft | 199 kts | 258° |
| 2026-04-23 19:39 | 41.38679 | 39.49110 | 24027 ft | 199 kts | 258° |
| 2026-04-23 19:40 | 41.38509 | 39.47281 | 24023 ft | 199 kts | 258° |
| 2026-04-23 19:40 | 41.38338 | 39.45448 | 24027 ft | 199 kts | 258° |
| 2026-04-23 19:40 | 41.38169 | 39.43639 | 24030 ft | 199 kts | 258° |
| 2026-04-23 19:40 | 41.37998 | 39.41809 | 24025 ft | 199 kts | 258° |
| 2026-04-23 19:41 | 41.37827 | 39.39981 | 24027 ft | 199 kts | 258° |
| 2026-04-23 19:41 | 41.37656 | 39.38156 | 24026 ft | 199 kts | 258° |
| 2026-04-23 19:41 | 41.37484 | 39.36326 | 24023 ft | 199 kts | 258° |
| 2026-04-23 19:41 | 41.37312 | 39.34501 | 24026 ft | 199 kts | 258° |
| 2026-04-23 19:42 | 41.37139 | 39.32672 | 24027 ft | 199 kts | 258° |
| 2026-04-23 19:42 | 41.36966 | 39.30838 | 24028 ft | 199 kts | 258° |
| 2026-04-23 19:42 | 41.36793 | 39.29012 | 24024 ft | 199 kts | 258° |
| 2026-04-23 19:42 | 41.36620 | 39.27184 | 24024 ft | 199 kts | 258° |
| 2026-04-23 19:43 | 41.36447 | 39.25362 | 24024 ft | 198 kts | 258° |
| 2026-04-23 19:43 | 41.36276 | 39.23561 | 24025 ft | 197 kts | 258° |
| 2026-04-23 19:43 | 41.36103 | 39.21752 | 24022 ft | 197 kts | 258° |
| 2026-04-23 19:43 | 41.35931 | 39.19944 | 24024 ft | 196 kts | 258° |
| 2026-04-23 19:44 | 41.35758 | 39.18140 | 24024 ft | 196 kts | 258° |
| 2026-04-23 19:44 | 41.35585 | 39.16336 | 24025 ft | 196 kts | 258° |
| 2026-04-23 19:44 | 41.35412 | 39.14536 | 24023 ft | 196 kts | 258° |
| 2026-04-23 19:44 | 41.35239 | 39.12735 | 24023 ft | 196 kts | 258° |
| 2026-04-23 19:45 | 41.35066 | 39.10937 | 24023 ft | 196 kts | 257° |
| 2026-04-23 19:45 | 41.34894 | 39.09156 | 24024 ft | 196 kts | 258° |
| 2026-04-23 19:45 | 41.34721 | 39.07356 | 24025 ft | 196 kts | 258° |
| 2026-04-23 19:45 | 41.34547 | 39.05558 | 24022 ft | 196 kts | 257° |
| 2026-04-23 19:46 | 41.34372 | 39.03759 | 24025 ft | 196 kts | 257° |
| 2026-04-23 19:46 | 41.34198 | 39.01961 | 24023 ft | 196 kts | 257° |
| 2026-04-23 19:46 | 41.34023 | 39.00161 | 24026 ft | 196 kts | 257° |
| 2026-04-23 19:46 | 41.33847 | 38.98356 | 24024 ft | 196 kts | 257° |
| 2026-04-23 19:47 | 41.33728 | 38.97141 | 24027 ft | 196 kts | 257° |
| 2026-04-23 19:47 | 41.33496 | 38.94758 | 24025 ft | 196 kts | 257° |
| 2026-04-23 19:47 | 41.33319 | 38.92958 | 24024 ft | 196 kts | 257° |
| 2026-04-23 19:47 | 41.33143 | 38.91160 | 24025 ft | 196 kts | 257° |
| 2026-04-23 19:48 | 41.32966 | 38.89360 | 24024 ft | 196 kts | 257° |
| 2026-04-23 19:48 | 41.32790 | 38.87562 | 24022 ft | 196 kts | 257° |
| 2026-04-23 19:48 | 41.32612 | 38.85759 | 24022 ft | 196 kts | 257° |
| 2026-04-23 19:48 | 41.32434 | 38.83955 | 24024 ft | 196 kts | 257° |
| 2026-04-23 19:49 | 41.32258 | 38.82177 | 24021 ft | 196 kts | 257° |
| 2026-04-23 19:49 | 41.32080 | 38.80376 | 24022 ft | 196 kts | 257° |
| 2026-04-23 19:49 | 41.31902 | 38.78579 | 24025 ft | 196 kts | 257° |
| 2026-04-23 19:49 | 41.31723 | 38.76778 | 24025 ft | 196 kts | 257° |
| 2026-04-23 19:50 | 41.31543 | 38.74977 | 24024 ft | 196 kts | 257° |
| 2026-04-23 19:50 | 41.31366 | 38.73198 | 24023 ft | 196 kts | 257° |
| 2026-04-23 19:50 | 41.31187 | 38.71404 | 24024 ft | 196 kts | 257° |
| 2026-04-23 19:50 | 41.31007 | 38.69606 | 24025 ft | 196 kts | 257° |
| 2026-04-23 19:51 | 41.30827 | 38.67806 | 24024 ft | 196 kts | 257° |
| 2026-04-23 19:51 | 41.30647 | 38.66011 | 24021 ft | 196 kts | 257° |
| 2026-04-23 19:51 | 41.30528 | 38.64824 | 24025 ft | 195 kts | 257° |
| 2026-04-23 19:51 | 41.30348 | 38.63030 | 24023 ft | 195 kts | 257° |
| 2026-04-23 19:52 | 41.30168 | 38.61243 | 24028 ft | 195 kts | 257° |
| 2026-04-23 19:52 | 41.29986 | 38.59449 | 24025 ft | 195 kts | 257° |
| 2026-04-23 19:52 | 41.29805 | 38.57656 | 24028 ft | 196 kts | 257° |
| 2026-04-23 19:52 | 41.29625 | 38.55882 | 24026 ft | 196 kts | 257° |
| 2026-04-23 19:53 | 41.29443 | 38.54083 | 24026 ft | 196 kts | 257° |
| 2026-04-23 19:53 | 41.29261 | 38.52283 | 24026 ft | 197 kts | 257° |
| 2026-04-23 19:53 | 41.29077 | 38.50482 | 24027 ft | 197 kts | 257° |
| 2026-04-23 19:53 | 41.28894 | 38.48679 | 24025 ft | 197 kts | 257° |
| 2026-04-23 19:54 | 41.28709 | 38.46866 | 24026 ft | 197 kts | 257° |
| 2026-04-23 19:54 | 41.28524 | 38.45059 | 24029 ft | 197 kts | 257° |
| 2026-04-23 19:54 | 41.28340 | 38.43253 | 24026 ft | 197 kts | 257° |
| 2026-04-23 19:54 | 41.28154 | 38.41443 | 24026 ft | 197 kts | 257° |
| 2026-04-23 19:55 | 41.27971 | 38.39660 | 24024 ft | 197 kts | 257° |
| 2026-04-23 19:55 | 41.27786 | 38.37857 | 24024 ft | 197 kts | 257° |
| 2026-04-23 19:55 | 41.27600 | 38.36055 | 24024 ft | 197 kts | 257° |
| 2026-04-23 19:55 | 41.27414 | 38.34251 | 24027 ft | 197 kts | 257° |
| 2026-04-23 19:56 | 41.27228 | 38.32450 | 24025 ft | 196 kts | 257° |
| 2026-04-23 19:56 | 41.27042 | 38.30651 | 24031 ft | 196 kts | 257° |
| 2026-04-23 19:56 | 41.26855 | 38.28852 | 24030 ft | 196 kts | 257° |
| 2026-04-23 19:56 | 41.26668 | 38.27050 | 24031 ft | 196 kts | 257° |
| 2026-04-23 19:57 | 41.26482 | 38.25254 | 24033 ft | 196 kts | 257° |
| 2026-04-23 19:57 | 41.26295 | 38.23458 | 24027 ft | 196 kts | 257° |
| 2026-04-23 19:57 | 41.26109 | 38.21679 | 24028 ft | 197 kts | 257° |
| 2026-04-23 19:57 | 41.25921 | 38.19877 | 24026 ft | 197 kts | 257° |
| 2026-04-23 19:58 | 41.25732 | 38.18076 | 24029 ft | 197 kts | 257° |
| 2026-04-23 19:58 | 41.25544 | 38.16275 | 24052 ft | 195 kts | 257° |
| 2026-04-23 19:58 | 41.25354 | 38.14468 | 23916 ft | 201 kts | 257° |
| 2026-04-23 19:58 | 41.25155 | 38.12589 | 23684 ft | 208 kts | 257° |
| 2026-04-23 19:59 | 41.24953 | 38.10657 | 23424 ft | 213 kts | 257° |
| 2026-04-23 19:59 | 41.24748 | 38.08696 | 23150 ft | 212 kts | 257° |
| 2026-04-23 19:59 | 41.24547 | 38.06779 | 22872 ft | 208 kts | 257° |
| 2026-04-23 19:59 | 41.24346 | 38.04887 | 22601 ft | 206 kts | 257° |
| 2026-04-23 20:00 | 41.24148 | 38.03028 | 22334 ft | 204 kts | 257° |
| 2026-04-23 20:00 | 41.23950 | 38.01164 | 22067 ft | 204 kts | 256° |
| 2026-04-23 20:00 | 41.23752 | 37.99301 | 21804 ft | 203 kts | 256° |
| 2026-04-23 20:00 | 41.23554 | 37.97444 | 21532 ft | 203 kts | 256° |
| 2026-04-23 20:01 | 41.23356 | 37.95590 | 21278 ft | 203 kts | 256° |
| 2026-04-23 20:01 | 41.23158 | 37.93738 | 21022 ft | 202 kts | 256° |
| 2026-04-23 20:01 | 41.22960 | 37.91885 | 20769 ft | 202 kts | 256° |
| 2026-04-23 20:01 | 41.22762 | 37.90034 | 20512 ft | 202 kts | 256° |
| 2026-04-23 20:02 | 41.22563 | 37.88183 | 20262 ft | 202 kts | 255° |
| 2026-04-23 20:02 | 41.22365 | 37.86336 | 20014 ft | 202 kts | 255° |
| 2026-04-23 20:02 | 41.22165 | 37.84479 | 19767 ft | 202 kts | 255° |
| 2026-04-23 20:02 | 41.21966 | 37.82629 | 19520 ft | 203 kts | 255° |
| 2026-04-23 20:03 | 41.21765 | 37.80771 | 19276 ft | 203 kts | 255° |
| 2026-04-23 20:03 | 41.21565 | 37.78917 | 19036 ft | 203 kts | 255° |
| 2026-04-23 20:03 | 41.21366 | 37.77084 | 18804 ft | 203 kts | 255° |
| 2026-04-23 20:03 | 41.21165 | 37.75226 | 18564 ft | 203 kts | 255° |
| 2026-04-23 20:04 | 41.20963 | 37.73373 | 18331 ft | 203 kts | 255° |
| 2026-04-23 20:04 | 41.20761 | 37.71516 | 18063 ft | 203 kts | 255° |
| 2026-04-23 20:04 | 41.20559 | 37.69657 | 17782 ft | 203 kts | 255° |
| 2026-04-23 20:04 | 41.20358 | 37.67801 | 17516 ft | 203 kts | 256° |
| 2026-04-23 20:05 | 41.20155 | 37.65946 | 17252 ft | 203 kts | 256° |
| 2026-04-23 20:05 | 41.19952 | 37.64095 | 16992 ft | 203 kts | 256° |
| 2026-04-23 20:05 | 41.19748 | 37.62237 | 16730 ft | 203 kts | 256° |
| 2026-04-23 20:05 | 41.19544 | 37.60375 | 16472 ft | 204 kts | 257° |
| 2026-04-23 20:06 | 41.19341 | 37.58532 | 16199 ft | 205 kts | 257° |
| 2026-04-23 20:06 | 41.19135 | 37.56657 | 15922 ft | 205 kts | 257° |
| 2026-04-23 20:06 | 41.19040 | 37.54766 | 15645 ft | 209 kts | 268° |
| 2026-04-23 20:06 | 41.19188 | 37.52833 | 15371 ft | 211 kts | 269° |
| 2026-04-23 20:07 | 41.19340 | 37.50895 | 15099 ft | 211 kts | 270° |
| 2026-04-23 20:07 | 41.19486 | 37.48953 | 14831 ft | 211 kts | 270° |
| 2026-04-23 20:07 | 41.19631 | 37.47005 | 14557 ft | 211 kts | 270° |
| 2026-04-23 20:07 | 41.19775 | 37.45079 | 14297 ft | 212 kts | 271° |
| 2026-04-23 20:08 | 41.19921 | 37.43130 | 14033 ft | 212 kts | 271° |
| 2026-04-23 20:08 | 41.20065 | 37.41185 | 13765 ft | 212 kts | 272° |
| 2026-04-23 20:08 | 41.20210 | 37.39235 | 13468 ft | 212 kts | 272° |
| 2026-04-23 20:08 | 41.20355 | 37.37280 | 13172 ft | 213 kts | 272° |
| 2026-04-23 20:09 | 41.20500 | 37.35315 | 12880 ft | 214 kts | 272° |
| 2026-04-23 20:09 | 41.20645 | 37.33355 | 12591 ft | 216 kts | 273° |
| 2026-04-23 20:09 | 41.20791 | 37.31368 | 12306 ft | 217 kts | 273° |
| 2026-04-23 20:09 | 41.20937 | 37.29369 | 12022 ft | 218 kts | 273° |
| 2026-04-23 20:10 | 41.21035 | 37.28035 | 11834 ft | 219 kts | 273° |
| 2026-04-23 20:10 | 41.21233 | 37.25326 | 11459 ft | 221 kts | 274° |
| 2026-04-23 20:10 | 41.21374 | 37.23291 | 11183 ft | 221 kts | 271° |
| 2026-04-23 20:10 | 41.21178 | 37.21280 | 10910 ft | 220 kts | 255° |
| 2026-04-23 20:11 | 41.20730 | 37.19332 | 10631 ft | 220 kts | 254° |
| 2026-04-23 20:11 | 41.20285 | 37.17380 | 10365 ft | 221 kts | 254° |
| 2026-04-23 20:11 | 41.19842 | 37.15417 | 10094 ft | 222 kts | 254° |
| 2026-04-23 20:11 | 41.19401 | 37.13469 | 9822 ft | 223 kts | 254° |
| 2026-04-23 20:12 | 41.18952 | 37.11488 | 9527 ft | 224 kts | 254° |
| 2026-04-23 20:12 | 41.18499 | 37.09499 | 9175 ft | 225 kts | 254° |
| 2026-04-23 20:12 | 41.18046 | 37.07505 | 8829 ft | 226 kts | 254° |
| 2026-04-23 20:12 | 41.17592 | 37.05508 | 8494 ft | 226 kts | 254° |
| 2026-04-23 20:13 | 41.17140 | 37.03524 | 8161 ft | 227 kts | 253° |
| 2026-04-23 20:13 | 41.16684 | 37.01527 | 7782 ft | 225 kts | 253° |
| 2026-04-23 20:13 | 41.16225 | 36.99514 | 7412 ft | 224 kts | 253° |
| 2026-04-23 20:13 | 41.15782 | 36.97572 | 7091 ft | 222 kts | 253° |
| 2026-04-23 20:14 | 41.15342 | 36.95645 | 6766 ft | 212 kts | 253° |
| 2026-04-23 20:14 | 41.14914 | 36.93776 | 6438 ft | 213 kts | 253° |
| 2026-04-23 20:14 | 41.14483 | 36.91895 | 6101 ft | 213 kts | 253° |
| 2026-04-23 20:14 | 41.14053 | 36.90019 | 5756 ft | 211 kts | 253° |
| 2026-04-23 20:15 | 41.13628 | 36.88166 | 5418 ft | 209 kts | 253° |
| 2026-04-23 20:15 | 41.13206 | 36.86329 | 5113 ft | 207 kts | 253° |
| 2026-04-23 20:15 | 41.12794 | 36.84536 | 4835 ft | 204 kts | 253° |
| 2026-04-23 20:15 | 41.12381 | 36.82741 | 4504 ft | 204 kts | 253° |
| 2026-04-23 20:16 | 41.11965 | 36.80930 | 4113 ft | 206 kts | 253° |
| 2026-04-23 20:16 | 41.11770 | 36.79078 | 3825 ft | 202 kts | 273° |
| 2026-04-23 20:16 | 41.12087 | 36.77284 | 3565 ft | 199 kts | 293° |
| 2026-04-23 20:16 | 41.12819 | 36.75742 | 3305 ft | 196 kts | 306° |
| 2026-04-23 20:17 | 41.13625 | 36.74301 | 3043 ft | 188 kts | 306° |
| 2026-04-23 20:17 | 41.14369 | 36.72962 | 2816 ft | 179 kts | 306° |
| 2026-04-23 20:17 | 41.15098 | 36.71636 | 2603 ft | 177 kts | 306° |
| 2026-04-23 20:17 | 41.15815 | 36.70334 | 2397 ft | 173 kts | 306° |
| 2026-04-23 20:18 | 41.16512 | 36.69080 | 2300 ft | 164 kts | 308° |
| 2026-04-23 20:18 | 41.17291 | 36.67984 | 2298 ft | 166 kts | 315° |
| 2026-04-23 20:18 | 41.18113 | 36.66903 | 2299 ft | 163 kts | 314° |
| 2026-04-23 20:18 | 41.18874 | 36.65860 | 2290 ft | 151 kts | 313° |
| 2026-04-23 20:19 | 41.19591 | 36.64860 | 2122 ft | 147 kts | 313° |
| 2026-04-23 20:19 | 41.20282 | 36.63899 | 1919 ft | 137 kts | 313° |
| 2026-04-23 20:19 | 41.20896 | 36.63047 | 1714 ft | 120 kts | 313° |
| 2026-04-23 20:19 | 41.21470 | 36.62243 | 1311 ft | 122 kts | 313° |
| 2026-04-23 20:20 | 41.22062 | 36.61415 | 926 ft | 123 kts | 313° |
| 2026-04-23 20:20 | 41.22648 | 36.60618 | 615 ft | 112 kts | 313° |
| 2026-04-23 20:20 | 41.23164 | 36.59913 | 345 ft | 106 kts | 313° |
| 2026-04-23 20:20 | 41.23653 | 36.59196 | 220 ft | 103 kts | 312° |
| 2026-04-23 20:21 | 41.24140 | 36.58522 | 137 ft | 98 kts | 314° |
| 2026-04-23 20:21 | 41.24615 | 36.57868 | 33 ft | 95 kts | 313° |
| 2026-04-23 20:21 | 41.24931 | 36.57422 | 22 ft | 13 kts | 315° |
| 2026-04-23 20:21 | 41.24954 | 36.57391 | 21 ft | 12 kts | 315° |
| 2026-04-23 20:22 | 41.25055 | 36.57259 | 21 ft | 27 kts | 316° |
| 2026-04-23 20:22 | 41.25197 | 36.57064 | 19 ft | 32 kts | 313° |
| 2026-04-23 20:22 | 41.25354 | 36.56841 | 19 ft | 34 kts | 315° |
| 2026-04-23 20:22 | 41.25519 | 36.56613 | 20 ft | 35 kts | 315° |
| 2026-04-23 20:23 | 41.25691 | 36.56373 | 22 ft | 36 kts | 313° |
| 2026-04-23 20:23 | 41.25869 | 36.56128 | 20 ft | 37 kts | 312° |
| 2026-04-23 20:23 | 41.26003 | 36.55940 | 20 ft | 11 kts | 312° |
| 2026-04-23 20:23 | 41.25997 | 36.55820 | 20 ft | 13 kts | 224° |
| 2026-04-23 20:24 | 41.25957 | 36.55770 | 21 ft | 0 kts | 223° |
| 2026-04-23 20:25 | 41.25939 | 36.55749 | 22 ft | 12 kts | 223° |
| 2026-04-23 20:25 | 41.25871 | 36.55657 | 21 ft | 15 kts | 245° |
| 2026-04-23 20:25 | 41.25920 | 36.55566 | 22 ft | 17 kts | 312° |
| 2026-04-23 20:25 | 41.25929 | 36.55554 | 21 ft | 0 kts | 315° |
| 2026-04-23 20:26 | 41.25949 | 36.55528 | 22 ft | 9 kts | 313° |
| 2026-04-23 20:26 | 41.25957 | 36.55464 | 21 ft | 9 kts | 217° |
| 2026-04-23 20:26 | 41.25933 | 36.55434 | 21 ft | 4 kts | 224° |
| 2026-04-23 20:26 | 41.25930 | 36.55430 | 21 ft | 0 kts | 224° |